Аэропорт: Хомутово. Южно-Сахалинск

ICAO: UHSS

METAR:
2019-09-21 16:00:00
UHSS 211600Z 02002MPS 9999 -SHRA SCT026CB 11/10 Q1019 R01/70D RMK MT OBSC QFE763/1017
METAR:
2019-09-21 14:00:00
TAF UHSS 211400Z 2115/2221 20003MPS 9999 BKN030CB TEMPO 2115/2122 1400 SHRA BR BKN004 OVC020CB